createdAt,value
2023-05-17T00:02:13.906Z,6.72
2023-05-17T00:04:40.434Z,7.90
2023-05-17T00:07:09.884Z,6.70
2023-05-17T00:09:36.573Z,7.28
2023-05-17T00:12:03.236Z,10.45
2023-05-17T00:14:29.711Z,9.10
2023-05-17T00:16:56.150Z,9.25
2023-05-17T00:19:22.864Z,7.22
2023-05-17T00:21:49.438Z,7.75
2023-05-17T00:24:15.856Z,9.10
2023-05-17T00:26:42.370Z,6.78
2023-05-17T00:29:08.798Z,11.13
2023-05-17T00:31:35.271Z,8.48
2023-05-17T00:34:01.694Z,8.63
2023-05-17T00:36:28.106Z,8.10
2023-05-17T00:38:54.531Z,8.77
2023-05-17T00:41:20.957Z,9.13
2023-05-17T00:43:47.393Z,8.80
2023-05-17T00:46:13.858Z,11.13
2023-05-17T00:48:40.386Z,10.27
2023-05-17T00:51:07.058Z,8.48
2023-05-17T00:53:34.907Z,7.93
2023-05-17T00:56:01.417Z,9.63
2023-05-17T00:58:27.889Z,8.35
2023-05-17T01:00:54.335Z,10.88
2023-05-17T01:03:22.607Z,8.05
2023-05-17T01:05:50.736Z,7.38
2023-05-17T01:08:17.323Z,9.68
2023-05-17T01:11:14.784Z,10.65
2023-05-17T01:13:44.161Z,10.60
2023-05-17T01:16:14.487Z,11.50
2023-05-17T01:18:52.929Z,8.73
2023-05-17T01:21:36.009Z,10.15
2023-05-17T01:24:27.373Z,7.65
2023-05-17T01:26:55.676Z,8.15
2023-05-17T01:29:25.834Z,9.95
2023-05-17T01:31:53.317Z,10.75
2023-05-17T01:34:27.042Z,8.43
2023-05-17T01:36:53.623Z,12.55
2023-05-17T01:39:20.299Z,11.55
2023-05-17T01:42:28.181Z,10.48
2023-05-17T01:45:33.168Z,10.07
2023-05-17T01:48:18.355Z,9.18
2023-05-17T01:50:49.163Z,10.98
2023-05-17T01:53:22.262Z,10.23
2023-05-17T01:55:53.836Z,13.02
2023-05-17T01:58:22.769Z,11.48
2023-05-17T02:00:49.784Z,10.32
2023-05-17T02:03:20.310Z,10.25
2023-05-17T02:05:46.786Z,11.77
2023-05-17T02:08:13.368Z,12.45
2023-05-17T02:10:39.959Z,12.80
2023-05-17T02:13:06.379Z,13.35
2023-05-17T02:15:32.862Z,11.95
2023-05-17T02:17:59.348Z,16.20
2023-05-17T02:20:25.849Z,13.10
2023-05-17T02:22:52.310Z,13.43
2023-05-17T02:25:18.812Z,12.20
2023-05-17T02:27:45.277Z,13.60
2023-05-17T02:30:15.621Z,10.57
2023-05-17T02:32:43.614Z,18.98
2023-05-17T02:35:10.096Z,13.65
2023-05-17T02:37:36.529Z,12.55
2023-05-17T02:40:04.225Z,13.85
2023-05-17T02:42:30.723Z,12.75
2023-05-17T02:44:58.015Z,14.02
2023-05-17T02:47:24.583Z,13.68
2023-05-17T02:49:51.023Z,14.15
2023-05-17T02:52:17.434Z,16.92
2023-05-17T02:54:43.874Z,12.00
2023-05-17T02:57:10.812Z,13.15
2023-05-17T02:59:37.371Z,13.32
2023-05-17T03:02:03.881Z,11.43
2023-05-17T03:04:30.516Z,11.05
2023-05-17T03:06:57.170Z,16.13
2023-05-17T03:09:23.639Z,20.30
2023-05-17T03:11:50.193Z,13.00
2023-05-17T03:14:16.633Z,16.58
2023-05-17T03:16:43.051Z,13.90
2023-05-17T03:19:09.610Z,13.20
2023-05-17T03:21:36.189Z,11.02
2023-05-17T03:24:02.649Z,11.30
2023-05-17T03:26:29.090Z,14.02
2023-05-17T03:28:55.532Z,11.80
2023-05-17T03:31:21.999Z,15.27
2023-05-17T03:33:48.570Z,15.35
2023-05-17T03:36:15.165Z,17.48
2023-05-17T03:38:41.902Z,14.70
2023-05-17T03:41:08.415Z,13.10
2023-05-17T03:43:34.912Z,10.80
2023-05-17T03:46:01.354Z,15.30
2023-05-17T03:48:28.031Z,16.30
2023-05-17T03:50:54.714Z,12.88
2023-05-17T03:53:21.637Z,13.30
2023-05-17T03:55:48.061Z,13.20
2023-05-17T03:58:15.561Z,11.63
2023-05-17T04:00:42.031Z,15.75
2023-05-17T04:03:08.572Z,14.90
2023-05-17T04:05:35.086Z,13.45
2023-05-17T04:08:01.612Z,14.93
2023-05-17T04:10:28.115Z,14.73
2023-05-17T04:12:54.582Z,20.33
2023-05-17T04:15:22.002Z,17.80
2023-05-17T04:17:48.590Z,19.90
2023-05-17T04:20:15.264Z,13.85
2023-05-17T04:22:41.753Z,16.77
2023-05-17T04:25:08.565Z,14.32
2023-05-17T04:27:35.038Z,14.38
2023-05-17T04:30:02.299Z,18.42
2023-05-17T04:32:29.530Z,20.30
2023-05-17T04:34:56.311Z,12.27
2023-05-17T04:37:22.969Z,14.23
2023-05-17T04:39:49.375Z,16.83
2023-05-17T04:42:16.392Z,14.40
2023-05-17T04:44:42.935Z,18.48
2023-05-17T04:47:09.414Z,16.23
2023-05-17T04:49:36.085Z,14.13
2023-05-17T04:52:04.656Z,15.15
2023-05-17T04:54:32.461Z,19.30
2023-05-17T04:56:58.879Z,17.00
2023-05-17T04:59:25.343Z,17.10
2023-05-17T05:01:51.756Z,18.67
2023-05-17T05:04:18.293Z,17.02
2023-05-17T05:06:44.783Z,15.75
2023-05-17T05:09:11.374Z,17.48
2023-05-17T05:11:37.819Z,16.10
2023-05-17T05:14:04.329Z,16.25
2023-05-17T05:16:30.765Z,14.50
2023-05-17T05:18:57.419Z,19.55
2023-05-17T05:21:24.103Z,17.80
2023-05-17T05:23:50.588Z,18.13
2023-05-17T05:26:17.076Z,15.77
2023-05-17T05:28:43.507Z,23.30
2023-05-17T05:31:09.947Z,13.95
2023-05-17T05:33:36.502Z,20.05
2023-05-17T05:36:03.160Z,20.02
2023-05-17T05:38:29.569Z,15.70
2023-05-17T05:40:55.970Z,17.27
2023-05-17T05:43:22.443Z,15.52
2023-05-17T05:45:49.338Z,17.48
2023-05-17T05:48:15.862Z,14.23
2023-05-17T05:50:43.839Z,12.00
2023-05-17T05:53:18.751Z,16.77
2023-05-17T05:55:46.009Z,11.98
2023-05-17T05:58:12.489Z,13.32
2023-05-17T06:00:38.913Z,16.42
2023-05-17T06:03:06.216Z,15.18
2023-05-17T06:05:32.803Z,15.57
2023-05-17T06:07:59.378Z,15.50
2023-05-17T06:10:25.944Z,15.85
2023-05-17T06:12:52.400Z,15.15
2023-05-17T06:15:18.891Z,12.18
2023-05-17T06:17:45.422Z,14.25
2023-05-17T06:20:12.012Z,10.90
2023-05-17T06:22:38.445Z,13.20
2023-05-17T06:25:05.214Z,11.95
2023-05-17T06:27:32.285Z,12.68
2023-05-17T06:29:58.740Z,11.73
2023-05-17T06:32:25.285Z,13.35
2023-05-17T06:34:51.719Z,8.10
2023-05-17T06:37:19.779Z,8.48
2023-05-17T06:39:55.905Z,8.75
2023-05-17T06:42:26.517Z,14.25
2023-05-17T06:44:52.960Z,12.52
2023-05-17T06:47:19.426Z,10.60
2023-05-17T06:49:45.864Z,11.05
2023-05-17T06:52:12.563Z,12.23
2023-05-17T06:54:38.983Z,9.10
2023-05-17T06:57:05.569Z,10.25
2023-05-17T06:59:32.067Z,9.60
2023-05-17T07:02:00.251Z,10.95
2023-05-17T07:04:27.310Z,14.68
2023-05-17T07:06:53.896Z,11.27
2023-05-17T07:09:21.437Z,8.90
2023-05-17T07:11:48.093Z,13.73
2023-05-17T07:14:14.701Z,14.20
2023-05-17T07:16:42.252Z,9.25
2023-05-17T07:19:08.750Z,7.90
2023-05-17T07:21:35.803Z,11.18
2023-05-17T07:24:02.568Z,10.65
2023-05-17T07:26:28.994Z,13.00
2023-05-17T07:28:55.440Z,9.23
2023-05-17T07:31:21.929Z,10.18
2023-05-17T07:33:48.381Z,9.05
2023-05-17T07:36:14.820Z,12.30
2023-05-17T07:38:41.318Z,6.20
2023-05-17T07:41:09.543Z,9.43
2023-05-17T07:43:37.813Z,9.35
2023-05-17T07:46:04.861Z,10.57
2023-05-17T07:48:31.635Z,6.97
2023-05-17T07:50:58.234Z,8.65
2023-05-17T07:53:25.515Z,8.63
2023-05-17T07:55:52.106Z,8.05
2023-05-17T07:58:18.549Z,8.07
2023-05-17T08:00:44.984Z,9.68
2023-05-17T08:03:11.478Z,8.60
2023-05-17T08:05:38.016Z,6.53
2023-05-17T08:08:04.552Z,7.38
2023-05-17T08:10:31.016Z,8.27
2023-05-17T08:12:57.525Z,6.22
2023-05-17T08:15:23.997Z,5.80
2023-05-17T08:17:50.993Z,8.35
2023-05-17T08:20:17.496Z,10.80
2023-05-17T08:22:44.042Z,8.55
2023-05-17T08:25:10.693Z,9.18
2023-05-17T08:27:37.967Z,9.27
2023-05-17T08:30:09.038Z,10.05
2023-05-17T08:32:38.103Z,6.65
2023-05-17T08:35:05.041Z,8.25
2023-05-17T08:37:31.457Z,8.82
2023-05-17T08:39:57.989Z,8.00
2023-05-17T08:42:27.347Z,8.75
2023-05-17T08:44:54.829Z,8.05
2023-05-17T08:47:30.024Z,7.45
2023-05-17T08:50:00.640Z,7.82
2023-05-17T08:52:32.221Z,10.05
2023-05-17T08:55:00.999Z,10.82
2023-05-17T08:57:28.744Z,7.35
2023-05-17T08:59:55.285Z,10.13
2023-05-17T09:02:22.455Z,9.43
2023-05-17T09:04:55.478Z,10.02
2023-05-17T09:07:25.467Z,10.70
2023-05-17T09:09:53.459Z,11.82
2023-05-17T09:12:25.427Z,6.97
2023-05-17T09:14:52.329Z,9.25
2023-05-17T09:17:20.496Z,6.55
2023-05-17T09:19:48.842Z,10.85
2023-05-17T09:22:18.332Z,10.93
2023-05-17T09:24:44.924Z,9.85
2023-05-17T09:27:15.496Z,12.63
2023-05-17T09:29:42.179Z,8.02
2023-05-17T09:32:20.523Z,7.20
2023-05-17T09:34:48.377Z,9.13
2023-05-17T09:37:16.730Z,8.30
2023-05-17T09:39:47.579Z,9.85
2023-05-17T09:42:16.549Z,8.00
2023-05-17T09:44:54.867Z,13.07
2023-05-17T09:47:29.882Z,9.68
2023-05-17T09:49:58.050Z,10.35
2023-05-17T09:52:25.202Z,11.18
2023-05-17T09:54:55.453Z,6.88
2023-05-17T09:57:22.723Z,7.85
2023-05-17T09:59:49.810Z,10.05
2023-05-17T10:02:27.131Z,10.35
2023-05-17T10:04:56.770Z,10.13
2023-05-17T10:07:25.874Z,8.40
2023-05-17T10:09:54.700Z,10.02
2023-05-17T10:12:25.880Z,8.88
2023-05-17T10:14:55.869Z,11.95
2023-05-17T10:17:23.705Z,11.82
2023-05-17T10:19:50.441Z,8.73
2023-05-17T10:22:23.342Z,10.27
2023-05-17T10:24:53.893Z,12.15
2023-05-17T10:27:20.844Z,9.63
2023-05-17T10:29:50.255Z,9.60
2023-05-17T10:32:19.394Z,10.57
2023-05-17T10:34:49.429Z,12.50
2023-05-17T10:37:21.744Z,10.18
2023-05-17T10:39:48.836Z,10.32
2023-05-17T10:42:16.277Z,7.57
2023-05-17T10:44:42.991Z,10.73
2023-05-17T10:47:10.108Z,13.57
2023-05-17T10:49:38.040Z,11.48
2023-05-17T10:52:17.247Z,9.50
2023-05-17T10:54:45.094Z,10.30
2023-05-17T11:00:07.986Z,8.82
2023-05-17T11:02:35.118Z,5.97
2023-05-17T11:05:02.466Z,9.75
2023-05-17T11:07:32.167Z,8.30
2023-05-17T11:10:05.858Z,8.90
2023-05-17T11:12:33.689Z,6.80
2023-05-17T11:15:01.365Z,9.98
2023-05-17T11:17:35.755Z,9.32
2023-05-17T11:20:03.518Z,8.00
2023-05-17T11:22:39.178Z,10.25
2023-05-17T11:25:12.865Z,9.45
2023-05-17T11:27:44.585Z,12.23
2023-05-17T11:30:30.629Z,10.60
2023-05-17T11:33:02.889Z,8.65
2023-05-17T11:35:34.193Z,9.13
2023-05-17T11:38:21.472Z,11.75
2023-05-17T11:40:54.004Z,8.13
2023-05-17T11:43:23.024Z,8.20
2023-05-17T11:45:53.227Z,8.30
2023-05-17T11:48:22.101Z,7.03
2023-05-17T11:50:50.110Z,11.45
2023-05-17T11:53:17.679Z,6.80
2023-05-17T11:55:51.882Z,5.57
2023-05-17T11:58:20.880Z,10.07
2023-05-17T12:00:53.122Z,6.35
2023-05-17T12:03:24.305Z,10.13
2023-05-17T12:05:55.384Z,6.45
2023-05-17T12:08:21.873Z,8.30
2023-05-17T12:10:52.269Z,8.52
2023-05-17T12:13:19.534Z,7.72
2023-05-17T12:15:51.437Z,9.38
2023-05-17T12:18:20.536Z,7.30
2023-05-17T12:20:57.239Z,6.53
2023-05-17T12:23:31.708Z,7.55
2023-05-17T12:26:10.814Z,8.15
2023-05-17T12:28:39.622Z,8.40
2023-05-17T12:31:11.773Z,7.95
2023-05-17T12:33:42.975Z,7.35
2023-05-17T12:36:11.415Z,9.63
2023-05-17T12:38:40.534Z,5.75
2023-05-17T12:41:08.802Z,5.88
2023-05-17T12:43:37.063Z,7.28
2023-05-17T12:46:08.243Z,6.32
2023-05-17T12:48:41.924Z,7.05
2023-05-17T12:51:13.320Z,7.28
2023-05-17T12:53:45.709Z,6.60
2023-05-17T12:58:42.121Z,4.22
2023-05-17T13:01:13.636Z,7.75
2023-05-17T13:03:41.761Z,8.07
2023-05-17T13:06:10.059Z,5.18
2023-05-17T13:08:36.697Z,7.75
2023-05-17T13:11:24.976Z,7.32
2023-05-17T13:13:51.474Z,9.77
2023-05-17T13:16:18.096Z,5.13
2023-05-17T13:18:49.316Z,6.50
2023-05-17T13:21:17.580Z,8.70
2023-05-17T13:23:45.885Z,7.78
2023-05-17T13:26:12.923Z,8.10
2023-05-17T13:28:40.399Z,7.68
2023-05-17T13:31:06.841Z,8.75
2023-05-17T13:33:33.402Z,6.45
2023-05-17T13:36:00.068Z,4.20
2023-05-17T13:38:26.537Z,7.60
2023-05-17T13:40:53.131Z,5.03
2023-05-17T13:43:19.816Z,5.22
2023-05-17T13:45:46.372Z,9.18
2023-05-17T13:48:12.962Z,5.38
2023-05-17T13:50:39.537Z,7.82
2023-05-17T13:53:06.085Z,9.02
2023-05-17T13:55:32.669Z,7.30
2023-05-17T13:57:59.142Z,5.88
2023-05-17T14:00:25.661Z,6.15
2023-05-17T14:02:52.144Z,5.97
2023-05-17T14:05:18.855Z,6.70
2023-05-17T14:07:46.092Z,4.85
2023-05-17T14:10:13.037Z,6.95
2023-05-17T14:12:39.644Z,6.10
2023-05-17T14:15:06.577Z,5.40
2023-05-17T14:17:33.219Z,9.10
2023-05-17T14:19:59.732Z,7.85
2023-05-17T14:22:26.213Z,9.05
2023-05-17T14:24:52.620Z,6.07
2023-05-17T14:27:19.137Z,7.28
2023-05-17T14:29:45.963Z,10.40
2023-05-17T14:32:13.999Z,6.90
2023-05-17T14:34:40.460Z,8.88
2023-05-17T14:37:07.288Z,8.13
2023-05-17T14:39:33.740Z,7.00
2023-05-17T14:42:00.223Z,6.65
2023-05-17T14:44:27.076Z,5.85
2023-05-17T14:46:53.507Z,5.97
2023-05-17T14:49:20.173Z,5.57
2023-05-17T14:51:46.679Z,8.23
2023-05-17T14:54:13.871Z,7.57
2023-05-17T14:56:40.754Z,7.30
2023-05-17T14:59:07.218Z,7.47
2023-05-17T15:01:33.681Z,9.23
2023-05-17T15:04:00.297Z,7.00
2023-05-17T15:06:26.818Z,7.88
2023-05-17T15:08:53.317Z,8.27
2023-05-17T15:11:20.167Z,4.72
2023-05-17T15:13:46.761Z,6.57
2023-05-17T15:16:13.363Z,4.05
2023-05-17T15:18:39.906Z,6.40
2023-05-17T15:21:06.545Z,5.93
2023-05-17T15:23:33.027Z,4.88
2023-05-17T15:25:59.420Z,5.30
2023-05-17T15:28:26.080Z,7.50
2023-05-17T15:31:02.832Z,7.50
2023-05-17T15:33:30.688Z,8.45
2023-05-17T15:35:57.200Z,8.50
2023-05-17T15:38:23.967Z,8.27
2023-05-17T15:41:12.341Z,6.03
2023-05-17T15:43:38.759Z,5.80
2023-05-17T15:46:05.239Z,7.10
2023-05-17T15:48:32.158Z,6.70
2023-05-17T15:50:58.724Z,4.45
2023-05-17T15:53:25.962Z,4.00
2023-05-17T15:55:52.473Z,8.60
2023-05-17T15:58:19.666Z,5.65
2023-05-17T16:00:46.354Z,7.72
2023-05-17T16:03:13.934Z,7.45
2023-05-17T16:05:41.099Z,7.00
2023-05-17T16:08:08.302Z,6.75
2023-05-17T16:10:35.440Z,6.00
2023-05-17T16:13:02.442Z,5.90
2023-05-17T16:15:29.058Z,5.57
2023-05-17T16:17:55.970Z,7.53
2023-05-17T16:20:22.420Z,6.43
2023-05-17T16:22:49.311Z,8.75
2023-05-17T16:25:16.480Z,4.85
2023-05-17T16:27:43.288Z,7.97
2023-05-17T16:30:09.787Z,5.65
2023-05-17T16:32:36.869Z,7.80
2023-05-17T16:35:03.561Z,7.65
2023-05-17T16:37:30.174Z,5.75
2023-05-17T16:39:57.677Z,9.77
2023-05-17T16:42:24.301Z,9.55
2023-05-17T16:44:50.938Z,6.53
2023-05-17T16:47:17.573Z,5.82
2023-05-17T16:49:44.412Z,7.40
2023-05-17T16:52:10.998Z,10.88
2023-05-17T16:54:38.673Z,6.82
2023-05-17T16:57:08.176Z,8.63
2023-05-17T16:59:35.060Z,7.03
2023-05-17T17:02:01.603Z,7.68
2023-05-17T17:04:28.178Z,7.13
2023-05-17T17:06:54.686Z,8.27
2023-05-17T17:09:21.258Z,6.47
2023-05-17T17:11:47.884Z,7.07
2023-05-17T17:14:14.665Z,8.35
2023-05-17T17:16:41.899Z,8.80
2023-05-17T17:19:09.555Z,8.65
2023-05-17T17:21:39.347Z,8.70
2023-05-17T17:24:06.499Z,6.28
2023-05-17T17:26:35.402Z,5.85
2023-05-17T17:29:03.804Z,8.35
2023-05-17T17:31:31.444Z,7.80
2023-05-17T17:33:58.226Z,9.02
2023-05-17T17:36:25.943Z,10.80
2023-05-17T17:38:52.448Z,8.30
2023-05-17T17:41:19.064Z,10.52
2023-05-17T17:43:47.956Z,7.47
2023-05-17T17:46:14.898Z,7.78
2023-05-17T17:48:41.581Z,8.70
2023-05-17T17:51:08.177Z,11.45
2023-05-17T17:53:34.617Z,9.93
2023-05-17T17:56:01.331Z,10.88
2023-05-17T17:58:28.011Z,8.32
2023-05-17T18:00:54.627Z,9.65
2023-05-17T18:03:21.097Z,9.82
2023-05-17T18:05:47.567Z,16.60
2023-05-17T18:08:13.993Z,10.60
2023-05-17T18:10:40.410Z,6.97
2023-05-17T18:13:06.842Z,10.82
2023-05-17T18:15:33.279Z,13.55
2023-05-17T18:17:59.822Z,6.35
2023-05-17T18:20:26.423Z,12.23
2023-05-17T18:22:53.356Z,10.43
2023-05-17T18:25:19.789Z,6.63
2023-05-17T18:27:46.296Z,10.80
2023-05-17T18:30:12.926Z,9.40
2023-05-17T18:35:06.184Z,12.23
2023-05-17T18:37:32.873Z,7.95
2023-05-17T18:40:02.162Z,8.52
2023-05-17T18:42:28.933Z,14.05
2023-05-17T18:44:55.408Z,8.52
2023-05-17T18:47:23.478Z,11.00
2023-05-17T18:49:51.822Z,12.63
2023-05-17T18:52:18.230Z,10.15
2023-05-17T18:54:45.292Z,9.70
2023-05-17T18:57:13.915Z,7.70
2023-05-17T18:59:40.756Z,11.93
2023-05-17T19:02:07.929Z,9.60
2023-05-17T19:04:34.530Z,11.20
2023-05-17T19:07:01.069Z,10.63
2023-05-17T19:09:27.521Z,8.38
2023-05-17T19:11:53.974Z,8.68
2023-05-17T19:14:21.025Z,11.05
2023-05-17T19:16:47.462Z,8.90
2023-05-17T19:19:13.950Z,11.07
2023-05-17T19:21:40.703Z,11.95
2023-05-17T19:24:07.228Z,8.30
2023-05-17T19:26:33.675Z,10.02
2023-05-17T19:29:00.073Z,8.50
2023-05-17T19:31:26.562Z,9.82
2023-05-17T19:33:53.086Z,10.60
2023-05-17T19:36:19.571Z,8.52
2023-05-17T19:38:45.983Z,6.53
2023-05-17T19:41:12.428Z,8.55
2023-05-17T19:43:38.840Z,5.40
2023-05-17T19:46:09.178Z,11.38
2023-05-17T19:48:35.615Z,7.97
2023-05-17T19:51:02.760Z,12.95
2023-05-17T19:53:40.403Z,10.13
2023-05-17T19:56:14.691Z,8.77
2023-05-17T19:58:41.095Z,7.00
2023-05-17T20:01:07.529Z,9.40
2023-05-17T20:03:34.029Z,8.48
2023-05-17T20:06:00.619Z,9.15
2023-05-17T20:08:27.219Z,7.05
2023-05-17T20:10:53.617Z,9.38
2023-05-17T20:13:23.963Z,8.70
2023-05-17T20:15:50.441Z,8.30
2023-05-17T20:18:16.890Z,8.68
2023-05-17T20:20:43.384Z,8.93
2023-05-17T20:23:09.865Z,9.10
2023-05-17T20:25:37.895Z,13.38
2023-05-17T20:28:04.372Z,6.25
2023-05-17T20:30:31.077Z,10.32
2023-05-17T20:32:57.729Z,8.57
2023-05-17T20:35:24.203Z,10.20
2023-05-17T20:37:50.679Z,8.25
2023-05-17T20:40:17.149Z,7.78
2023-05-17T20:42:45.774Z,9.50
2023-05-17T20:45:14.521Z,7.05
2023-05-17T20:47:41.232Z,9.77
2023-05-17T20:50:08.966Z,7.28
2023-05-17T20:52:39.241Z,11.23
2023-05-17T20:55:07.850Z,9.00
2023-05-17T20:57:34.250Z,8.27
2023-05-17T21:00:00.686Z,7.38
2023-05-17T21:02:27.187Z,11.05
2023-05-17T21:04:54.577Z,9.02
2023-05-17T21:07:21.069Z,13.18
2023-05-17T21:09:47.536Z,6.50
2023-05-17T21:12:13.998Z,10.38
2023-05-17T21:14:40.478Z,9.60
2023-05-17T21:17:06.905Z,9.48
2023-05-17T21:19:33.333Z,9.40
2023-05-17T21:21:59.900Z,7.45
2023-05-17T21:24:26.311Z,8.82
2023-05-17T21:26:52.788Z,11.18
2023-05-17T21:29:19.286Z,7.50
2023-05-17T21:31:46.013Z,7.10
2023-05-17T21:34:12.528Z,8.70
2023-05-17T21:36:38.928Z,8.80
2023-05-17T21:39:05.405Z,11.23
2023-05-17T21:41:32.308Z,11.30
2023-05-17T21:43:58.708Z,6.68
2023-05-17T21:46:25.480Z,8.65
2023-05-17T21:48:52.195Z,5.88
2023-05-17T21:51:18.650Z,9.63
2023-05-17T21:53:45.155Z,10.93
2023-05-17T21:56:11.573Z,8.55
2023-05-17T21:58:38.006Z,12.30
2023-05-17T22:01:04.580Z,10.48
2023-05-17T22:03:31.399Z,6.55
2023-05-17T22:05:58.321Z,10.65
2023-05-17T22:08:24.768Z,8.60
2023-05-17T22:10:51.449Z,11.65
2023-05-17T22:13:18.205Z,7.93
2023-05-17T22:15:45.130Z,7.82
2023-05-17T22:18:12.374Z,11.15
2023-05-17T22:20:39.004Z,9.30
2023-05-17T22:23:05.503Z,7.28
2023-05-17T22:25:31.989Z,7.18
2023-05-17T22:27:58.427Z,7.20
2023-05-17T22:30:24.875Z,10.27
2023-05-17T22:32:54.524Z,7.60
2023-05-17T22:35:21.496Z,11.23
2023-05-17T22:37:49.978Z,11.00
2023-05-17T22:40:16.445Z,9.70
2023-05-17T22:42:43.120Z,9.40
2023-05-17T22:45:10.184Z,11.05
2023-05-17T22:47:36.691Z,11.90
2023-05-17T22:50:03.244Z,11.43
2023-05-17T22:52:29.683Z,9.98
2023-05-17T22:54:56.082Z,12.35
2023-05-17T22:57:22.484Z,7.47
2023-05-17T22:59:48.889Z,8.30
2023-05-17T23:02:15.333Z,10.80
2023-05-17T23:04:41.841Z,7.13
2023-05-17T23:07:09.756Z,10.07
2023-05-17T23:09:40.222Z,9.73
2023-05-17T23:12:07.403Z,8.77
2023-05-17T23:14:36.113Z,9.98
2023-05-17T23:17:05.417Z,11.90
2023-05-17T23:19:35.502Z,6.05
2023-05-17T23:22:03.227Z,8.10
2023-05-17T23:24:30.044Z,9.10
2023-05-17T23:26:57.532Z,8.27
2023-05-17T23:29:23.946Z,9.98
2023-05-17T23:31:50.614Z,7.88
2023-05-17T23:34:17.266Z,7.63
2023-05-17T23:36:43.667Z,10.55
2023-05-17T23:39:10.659Z,9.73
2023-05-17T23:41:39.672Z,7.43
2023-05-17T23:44:06.301Z,9.38
2023-05-17T23:46:33.079Z,11.18
2023-05-17T23:48:59.570Z,9.05
2023-05-17T23:51:26.038Z,7.53
2023-05-17T23:53:52.484Z,6.93
2023-05-17T23:56:19.515Z,8.77
2023-05-17T23:58:46.363Z,9.48
